sensor_id;sensor_type;location;lat;lon;timestamp;pressure;altitude;pressure_sealevel;temperature;humidity
57894;BME280;43710;47.460;19.034;2023-07-13T04:43:35;100251.53;;;24.93;76.36
57894;BME280;43710;47.460;19.034;2023-07-13T04:46:37;100251.53;;;24.93;76.36
57894;BME280;43710;47.460;19.034;2023-07-13T04:49:40;100253.53;;;24.48;73.16
57894;BME280;43710;47.460;19.034;2023-07-13T04:52:42;100249.16;;;24.43;78.09
57894;BME280;43710;47.460;19.034;2023-07-13T04:55:45;100262.41;;;24.37;77.36
57894;BME280;43710;47.460;19.034;2023-07-13T04:58:48;100276.06;;;24.34;78.30
57894;BME280;43710;47.460;19.034;2023-07-13T05:01:50;100292.38;;;24.23;78.95
57894;BME280;43710;47.460;19.034;2023-07-13T05:04:53;100299.88;;;24.30;81.53
57894;BME280;43710;47.460;19.034;2023-07-13T05:07:57;100337.25;;;24.11;80.38
57894;BME280;43710;47.460;19.034;2023-07-13T05:11:01;100380.69;;;23.83;81.99
57894;BME280;43710;47.460;19.034;2023-07-13T05:14:03;100413.72;;;23.71;83.03
57894;BME280;43710;47.460;19.034;2023-07-13T05:17:06;100427.91;;;23.76;84.77
57894;BME280;43710;47.460;19.034;2023-07-13T05:20:09;100447.00;;;23.50;83.58
57894;BME280;43710;47.460;19.034;2023-07-13T05:23:12;100457.31;;;23.14;88.21
57894;BME280;43710;47.460;19.034;2023-07-13T05:26:14;100455.25;;;22.88;91.09
57894;BME280;43710;47.460;19.034;2023-07-13T05:29:17;100444.25;;;22.84;92.88
57894;BME280;43710;47.460;19.034;2023-07-13T05:32:19;100439.88;;;22.60;94.08
57894;BME280;43710;47.460;19.034;2023-07-13T05:35:22;100432.78;;;22.56;92.87
57894;BME280;43710;47.460;19.034;2023-07-13T05:38:24;100424.28;;;22.41;93.92
57894;BME280;43710;47.460;19.034;2023-07-13T05:41:26;100409.53;;;22.26;94.99
57894;BME280;43710;47.460;19.034;2023-07-13T05:44:31;100410.97;;;22.20;98.85
57894;BME280;43710;47.460;19.034;2023-07-13T05:47:34;100413.16;;;22.15;93.53
57894;BME280;43710;47.460;19.034;2023-07-13T05:50:36;100413.31;;;22.02;95.87
57894;BME280;43710;47.460;19.034;2023-07-13T05:53:39;100396.69;;;22.11;95.72
57894;BME280;43710;47.460;19.034;2023-07-13T05:56:42;100381.03;;;22.08;95.54
57894;BME280;43710;47.460;19.034;2023-07-13T05:59:44;100372.28;;;21.99;91.59
57894;BME280;43710;47.460;19.034;2023-07-13T06:02:46;100371.25;;;21.88;92.85
57894;BME280;43710;47.460;19.034;2023-07-13T06:05:49;100351.25;;;21.64;91.42
57894;BME280;43710;47.460;19.034;2023-07-13T06:08:52;100335.47;;;21.73;95.71
57894;BME280;43710;47.460;19.034;2023-07-13T06:11:55;100286.78;;;21.56;99.34
57894;BME280;43710;47.460;19.034;2023-07-13T06:14:57;100192.50;;;21.58;91.59
57894;BME280;43710;47.460;19.034;2023-07-13T06:18:00;100080.47;;;21.48;90.84
57894;BME280;43710;47.460;19.034;2023-07-13T06:21:08;99992.25;;;21.60;90.29
57894;BME280;43710;47.460;19.034;2023-07-13T06:24:11;100039.03;;;21.62;94.85
57894;BME280;43710;47.460;19.034;2023-07-13T06:27:13;100071.91;;;21.69;94.08
57894;BME280;43710;47.460;19.034;2023-07-13T06:30:15;100056.69;;;21.68;93.59
57894;BME280;43710;47.460;19.034;2023-07-13T06:33:18;100029.41;;;21.68;91.60
57894;BME280;43710;47.460;19.034;2023-07-13T06:36:20;100017.47;;;21.76;89.99
57894;BME280;43710;47.460;19.034;2023-07-13T06:39:22;99995.94;;;21.71;91.15
57894;BME280;43710;47.460;19.034;2023-07-13T06:42:25;100032.97;;;21.95;99.63
57894;BME280;43710;47.460;19.034;2023-07-13T06:45:27;100046.66;;;21.98;92.02
57894;BME280;43710;47.460;19.034;2023-07-13T06:48:29;100036.69;;;21.83;94.90
57894;BME280;43710;47.460;19.034;2023-07-13T06:51:32;100044.28;;;21.93;96.21
57894;BME280;43710;47.460;19.034;2023-07-13T06:54:34;100048.00;;;21.85;92.60
57894;BME280;43710;47.460;19.034;2023-07-13T07:09:59;100072.28;;;22.63;90.76
57894;BME280;43710;47.460;19.034;2023-07-13T07:13:02;100075.63;;;22.79;88.39
57894;BME280;43710;47.460;19.034;2023-07-13T07:16:05;100090.44;;;22.78;89.37
57894;BME280;43710;47.460;19.034;2023-07-13T07:19:07;100249.19;;;22.69;92.65
57894;BME280;43710;47.460;19.034;2023-07-13T07:22:10;100218.94;;;22.82;93.98
57894;BME280;43710;47.460;19.034;2023-07-13T07:25:12;100250.19;;;22.84;94.13
57894;BME280;43710;47.460;19.034;2023-07-13T07:28:16;100259.22;;;22.85;92.58
57894;BME280;43710;47.460;19.034;2023-07-13T07:31:24;100267.16;;;22.93;92.27
57894;BME280;43710;47.460;19.034;2023-07-13T07:34:30;100264.28;;;22.86;91.45
57894;BME280;43710;47.460;19.034;2023-07-13T07:37:32;100277.75;;;22.95;90.86
57894;BME280;43710;47.460;19.034;2023-07-13T07:40:39;100292.19;;;22.95;87.45
57894;BME280;43710;47.460;19.034;2023-07-13T07:43:45;100278.31;;;23.08;87.63
57894;BME280;43710;47.460;19.034;2023-07-13T07:46:47;100284.13;;;23.29;89.43
57894;BME280;43710;47.460;19.034;2023-07-13T07:49:50;100277.06;;;23.28;83.02
57894;BME280;43710;47.460;19.034;2023-07-13T07:52:53;100275.81;;;23.49;85.59
57894;BME280;43710;47.460;19.034;2023-07-13T07:55:56;100274.53;;;23.69;85.22
57894;BME280;43710;47.460;19.034;2023-07-13T08:03:32;100282.09;;;24.13;80.86
57894;BME280;43710;47.460;19.034;2023-07-13T08:06:40;100270.81;;;24.55;81.05
57894;BME280;43710;47.460;19.034;2023-07-13T08:09:46;100274.03;;;24.65;76.15
57894;BME280;43710;47.460;19.034;2023-07-13T08:12:49;100266.81;;;24.90;77.38
57894;BME280;43710;47.460;19.034;2023-07-13T08:15:55;100261.41;;;25.01;76.66
57894;BME280;43710;47.460;19.034;2023-07-13T08:18:57;100276.03;;;25.16;71.85
57894;BME280;43710;47.460;19.034;2023-07-13T08:21:59;100272.22;;;25.35;72.60
57894;BME280;43710;47.460;19.034;2023-07-13T08:25:02;100282.47;;;25.45;72.56
57894;BME280;43710;47.460;19.034;2023-07-13T08:28:04;100272.25;;;25.42;68.87
57894;BME280;43710;47.460;19.034;2023-07-13T08:31:07;100278.56;;;25.49;69.39
57894;BME280;43710;47.460;19.034;2023-07-13T08:34:09;100277.44;;;25.54;70.37
57894;BME280;43710;47.460;19.034;2023-07-13T08:37:12;100268.88;;;25.66;68.83
57894;BME280;43710;47.460;19.034;2023-07-13T08:40:15;100279.12;;;25.76;70.83
57894;BME280;43710;47.460;19.034;2023-07-13T08:43:35;100267.00;;;25.81;68.19
57894;BME280;43710;47.460;19.034;2023-07-13T08:46:40;100274.06;;;25.86;69.40
57894;BME280;43710;47.460;19.034;2023-07-13T08:49:44;100278.81;;;25.96;67.56
57894;BME280;43710;47.460;19.034;2023-07-13T08:52:47;100274.94;;;26.08;67.89
57894;BME280;43710;47.460;19.034;2023-07-13T08:55:52;100278.47;;;26.08;65.87
57894;BME280;43710;47.460;19.034;2023-07-13T08:59:09;100282.75;;;26.06;67.26
57894;BME280;43710;47.460;19.034;2023-07-13T09:02:34;100280.41;;;26.00;68.12
57894;BME280;43710;47.460;19.034;2023-07-13T09:05:42;100269.78;;;25.95;66.29
57894;BME280;43710;47.460;19.034;2023-07-13T09:08:53;100268.25;;;26.01;64.50
57894;BME280;43710;47.460;19.034;2023-07-13T09:15:43;100279.62;;;26.00;65.81
57894;BME280;43710;47.460;19.034;2023-07-13T09:18:49;100268.22;;;25.91;66.46
57894;BME280;43710;47.460;19.034;2023-07-13T09:21:52;100272.59;;;26.06;69.36
57894;BME280;43710;47.460;19.034;2023-07-13T09:25:06;100266.28;;;26.02;68.36
57894;BME280;43710;47.460;19.034;2023-07-13T09:28:18;100267.09;;;26.06;68.54
57894;BME280;43710;47.460;19.034;2023-07-13T09:31:30;100272.62;;;26.20;66.98
57894;BME280;43710;47.460;19.034;2023-07-13T09:34:36;100287.56;;;26.30;66.15
57894;BME280;43710;47.460;19.034;2023-07-13T09:37:38;100287.97;;;26.36;63.62
57894;BME280;43710;47.460;19.034;2023-07-13T09:44:11;100300.94;;;26.46;65.68
57894;BME280;43710;47.460;19.034;2023-07-13T09:47:20;100298.97;;;26.46;62.45
57894;BME280;43710;47.460;19.034;2023-07-13T09:50:25;100291.19;;;26.59;63.55
57894;BME280;43710;47.460;19.034;2023-07-13T09:57:49;100309.22;;;26.57;62.97
57894;BME280;43710;47.460;19.034;2023-07-13T10:01:30;100307.25;;;26.54;63.18
57894;BME280;43710;47.460;19.034;2023-07-13T10:09:17;100310.78;;;26.54;65.50
57894;BME280;43710;47.460;19.034;2023-07-13T10:12:22;100312.75;;;26.50;63.54
57894;BME280;43710;47.460;19.034;2023-07-13T10:15:27;100314.31;;;26.55;62.59
57894;BME280;43710;47.460;19.034;2023-07-13T10:18:33;100307.28;;;26.68;62.20
57894;BME280;43710;47.460;19.034;2023-07-13T10:21:52;100306.50;;;26.71;62.43
57894;BME280;43710;47.460;19.034;2023-07-13T10:24:57;100313.97;;;26.81;62.42
57894;BME280;43710;47.460;19.034;2023-07-13T10:28:11;100308.88;;;26.83;60.00
57894;BME280;43710;47.460;19.034;2023-07-13T10:31:19;100313.97;;;26.85;59.38
57894;BME280;43710;47.460;19.034;2023-07-13T10:34:22;100321.06;;;26.82;60.79
57894;BME280;43710;47.460;19.034;2023-07-13T10:37:28;100323.41;;;26.84;60.03
57894;BME280;43710;47.460;19.034;2023-07-13T10:40:58;100319.09;;;26.83;60.11
57894;BME280;43710;47.460;19.034;2023-07-13T10:44:04;100318.28;;;26.97;59.24
57894;BME280;43710;47.460;19.034;2023-07-13T10:47:16;100316.31;;;26.93;58.46
57894;BME280;43710;47.460;19.034;2023-07-13T10:50:22;100313.56;;;27.04;58.98
57894;BME280;43710;47.460;19.034;2023-07-13T10:53:32;100320.25;;;27.10;60.00
57894;BME280;43710;47.460;19.034;2023-07-13T10:56:35;100319.06;;;27.11;58.13
57894;BME280;43710;47.460;19.034;2023-07-13T10:59:37;100314.78;;;27.14;60.04
57894;BME280;43710;47.460;19.034;2023-07-13T11:02:40;100311.22;;;27.17;59.36
57894;BME280;43710;47.460;19.034;2023-07-13T11:05:42;100300.63;;;27.23;59.56
57894;BME280;43710;47.460;19.034;2023-07-13T11:11:50;100302.94;;;27.35;58.12
57894;BME280;43710;47.460;19.034;2023-07-13T11:18:02;100302.91;;;27.56;57.00
57894;BME280;43710;47.460;19.034;2023-07-13T11:21:20;100314.28;;;27.66;55.29
57894;BME280;43710;47.460;19.034;2023-07-13T11:25:20;100302.84;;;27.78;56.16
57894;BME280;43710;47.460;19.034;2023-07-13T11:28:26;100303.97;;;27.91;53.91
57894;BME280;43710;47.460;19.034;2023-07-13T11:31:32;100299.69;;;27.86;55.19
57894;BME280;43710;47.460;19.034;2023-07-13T11:34:38;100297.31;;;27.92;54.71
57894;BME280;43710;47.460;19.034;2023-07-13T11:37:40;100307.94;;;27.90;52.51
57894;BME280;43710;47.460;19.034;2023-07-13T11:40:47;100302.84;;;27.85;52.10
57894;BME280;43710;47.460;19.034;2023-07-13T11:43:55;100300.50;;;27.76;52.98
57894;BME280;43710;47.460;19.034;2023-07-13T11:46:59;100299.31;;;27.74;54.31
57894;BME280;43710;47.460;19.034;2023-07-13T11:50:18;100302.84;;;27.85;53.12
57894;BME280;43710;47.460;19.034;2023-07-13T11:57:59;100300.91;;;27.78;52.49
57894;BME280;43710;47.460;19.034;2023-07-13T12:01:03;100307.53;;;27.88;53.17
57894;BME280;43710;47.460;19.034;2023-07-13T12:04:20;100300.88;;;27.82;52.29
57894;BME280;43710;47.460;19.034;2023-07-13T12:07:24;100298.53;;;27.70;53.64
57894;BME280;43710;47.460;19.034;2023-07-13T12:10:28;100291.84;;;27.71;54.16
57894;BME280;43710;47.460;19.034;2023-07-13T12:13:37;100290.66;;;27.72;54.08
57894;BME280;43710;47.460;19.034;2023-07-13T12:16:41;100291.47;;;27.69;55.56
57894;BME280;43710;47.460;19.034;2023-07-13T12:19:44;100276.09;;;27.68;56.92
57894;BME280;43710;47.460;19.034;2023-07-13T12:22:49;100290.66;;;27.79;57.33
57894;BME280;43710;47.460;19.034;2023-07-13T12:25:52;100283.94;;;27.83;55.47
57894;BME280;43710;47.460;19.034;2023-07-13T12:28:56;100292.97;;;27.87;54.86
57894;BME280;43710;47.460;19.034;2023-07-13T12:36:25;100267.84;;;27.82;52.51
57894;BME280;43710;47.460;19.034;2023-07-13T12:39:36;100259.19;;;27.80;54.40
57894;BME280;43710;47.460;19.034;2023-07-13T12:42:39;100269.78;;;27.78;53.53
57894;BME280;43710;47.460;19.034;2023-07-13T12:46:02;100269.41;;;27.76;54.73
57894;BME280;43710;47.460;19.034;2023-07-13T12:49:07;100279.62;;;27.75;54.30
57894;BME280;43710;47.460;19.034;2023-07-13T12:52:24;100282.00;;;27.73;54.95
57894;BME280;43710;47.460;19.034;2023-07-13T12:55:31;100278.47;;;27.73;52.70
57894;BME280;43710;47.460;19.034;2023-07-13T12:58:37;100274.13;;;27.79;54.04
57894;BME280;43710;47.460;19.034;2023-07-13T13:01:41;100270.94;;;27.95;51.69
57894;BME280;43710;47.460;19.034;2023-07-13T13:04:43;100269.31;;;27.97;53.51
57894;BME280;43710;47.460;19.034;2023-07-13T13:07:46;100263.78;;;28.01;53.64
57894;BME280;43710;47.460;19.034;2023-07-13T13:10:49;100277.13;;;28.09;53.61
57894;BME280;43710;47.460;19.034;2023-07-13T13:13:52;100267.22;;;28.23;53.79
57894;BME280;43710;47.460;19.034;2023-07-13T13:16:55;100259.34;;;28.25;53.67
57894;BME280;43710;47.460;19.034;2023-07-13T13:19:57;100255.38;;;28.26;53.21
57894;BME280;43710;47.460;19.034;2023-07-13T13:22:59;100247.91;;;28.26;53.54
57894;BME280;43710;47.460;19.034;2023-07-13T13:26:02;100244.78;;;28.21;52.69
57894;BME280;43710;47.460;19.034;2023-07-13T13:29:17;100246.34;;;28.25;51.90
57894;BME280;43710;47.460;19.034;2023-07-13T13:32:20;100252.28;;;28.17;50.85
57894;BME280;43710;47.460;19.034;2023-07-13T13:35:22;100251.47;;;28.20;52.43
57894;BME280;43710;47.460;19.034;2023-07-13T13:38:27;100252.69;;;28.19;51.27
57894;BME280;43710;47.460;19.034;2023-07-13T13:41:29;100254.25;;;28.20;51.35
57894;BME280;43710;47.460;19.034;2023-07-13T13:44:31;100241.59;;;28.26;51.07
57894;BME280;43710;47.460;19.034;2023-07-13T13:47:34;100242.41;;;28.23;51.84
57894;BME280;43710;47.460;19.034;2023-07-13T13:50:38;100243.19;;;28.23;51.81
57894;BME280;43710;47.460;19.034;2023-07-13T13:53:41;100239.63;;;28.26;51.31
57894;BME280;43710;47.460;19.034;2023-07-13T13:56:44;100238.91;;;28.19;50.72
57894;BME280;43710;47.460;19.034;2023-07-13T13:59:47;100233.72;;;28.24;49.79
57894;BME280;43710;47.460;19.034;2023-07-13T14:02:49;100254.19;;;28.27;51.57
57894;BME280;43710;47.460;19.034;2023-07-13T14:05:54;100251.84;;;28.25;51.96
57894;BME280;43710;47.460;19.034;2023-07-13T14:08:57;100237.28;;;28.25;50.52
